sensor_id;sensor_type;location;lat;lon;timestamp;P1;durP1;ratioP1;P2;durP2;ratioP2
35576;SDS011;21680;52.400;16.920;2022-08-14T00:00:29;13.95;;;7.12;;
35576;SDS011;21680;52.400;16.920;2022-08-14T00:02:55;11.03;;;7.05;;
35576;SDS011;21680;52.400;16.920;2022-08-14T00:05:21;13.40;;;7.50;;
35576;SDS011;21680;52.400;16.920;2022-08-14T00:07:47;11.35;;;7.00;;
35576;SDS011;21680;52.400;16.920;2022-08-14T00:10:16;10.65;;;6.83;;
35576;SDS011;21680;52.400;16.920;2022-08-14T00:12:46;11.88;;;7.47;;
35576;SDS011;21680;52.400;16.920;2022-08-14T00:17:48;17.37;;;7.50;;
35576;SDS011;21680;52.400;16.920;2022-08-14T00:20:16;13.28;;;7.20;;
35576;SDS011;21680;52.400;16.920;2022-08-14T00:22:46;12.03;;;6.85;;
35576;SDS011;21680;52.400;16.920;2022-08-14T00:25:12;11.95;;;7.28;;
35576;SDS011;21680;52.400;16.920;2022-08-14T00:27:38;10.93;;;7.35;;
35576;SDS011;21680;52.400;16.920;2022-08-14T00:30:05;14.87;;;7.17;;
35576;SDS011;21680;52.400;16.920;2022-08-14T00:32:35;9.33;;;6.50;;
35576;SDS011;21680;52.400;16.920;2022-08-14T00:35:02;16.70;;;6.72;;
35576;SDS011;21680;52.400;16.920;2022-08-14T00:37:31;11.60;;;5.92;;
35576;SDS011;21680;52.400;16.920;2022-08-14T00:39:58;15.05;;;5.95;;
35576;SDS011;21680;52.400;16.920;2022-08-14T00:42:26;7.58;;;5.85;;
35576;SDS011;21680;52.400;16.920;2022-08-14T00:44:54;12.20;;;5.85;;
35576;SDS011;21680;52.400;16.920;2022-08-14T00:47:21;13.48;;;6.00;;
35576;SDS011;21680;52.400;16.920;2022-08-14T00:49:51;14.30;;;5.58;;
35576;SDS011;21680;52.400;16.920;2022-08-14T00:52:20;9.38;;;4.80;;
35576;SDS011;21680;52.400;16.920;2022-08-14T00:54:47;9.88;;;5.50;;
35576;SDS011;21680;52.400;16.920;2022-08-14T00:57:17;9.80;;;5.60;;
35576;SDS011;21680;52.400;16.920;2022-08-14T00:59:46;11.48;;;5.17;;
35576;SDS011;21680;52.400;16.920;2022-08-14T01:02:14;9.63;;;5.17;;
35576;SDS011;21680;52.400;16.920;2022-08-14T01:07:12;14.47;;;5.22;;
35576;SDS011;21680;52.400;16.920;2022-08-14T01:09:40;6.83;;;4.60;;
35576;SDS011;21680;52.400;16.920;2022-08-14T01:12:06;12.43;;;4.92;;
35576;SDS011;21680;52.400;16.920;2022-08-14T01:14:34;14.05;;;5.22;;
35576;SDS011;21680;52.400;16.920;2022-08-14T01:17:00;14.47;;;5.47;;
35576;SDS011;21680;52.400;16.920;2022-08-14T01:19:26;6.60;;;4.85;;
35576;SDS011;21680;52.400;16.920;2022-08-14T01:22:11;11.90;;;4.75;;
35576;SDS011;21680;52.400;16.920;2022-08-14T01:24:36;14.28;;;4.97;;
35576;SDS011;21680;52.400;16.920;2022-08-14T01:27:02;10.08;;;4.80;;
35576;SDS011;21680;52.400;16.920;2022-08-14T01:29:31;16.27;;;4.67;;
35576;SDS011;21680;52.400;16.920;2022-08-14T01:32:03;12.88;;;4.75;;
35576;SDS011;21680;52.400;16.920;2022-08-14T01:34:35;8.58;;;4.55;;
35576;SDS011;21680;52.400;16.920;2022-08-14T01:37:01;10.95;;;4.60;;
35576;SDS011;21680;52.400;16.920;2022-08-14T01:39:29;14.38;;;5.12;;
35576;SDS011;21680;52.400;16.920;2022-08-14T01:41:55;11.35;;;4.37;;
35576;SDS011;21680;52.400;16.920;2022-08-14T01:44:23;14.13;;;5.50;;
35576;SDS011;21680;52.400;16.920;2022-08-14T01:46:52;10.18;;;4.40;;
35576;SDS011;21680;52.400;16.920;2022-08-14T01:49:20;8.85;;;4.15;;
35576;SDS011;21680;52.400;16.920;2022-08-14T01:51:48;23.47;;;5.03;;
35576;SDS011;21680;52.400;16.920;2022-08-14T01:54:17;17.30;;;4.83;;
35576;SDS011;21680;52.400;16.920;2022-08-14T01:56:53;12.33;;;4.17;;
35576;SDS011;21680;52.400;16.920;2022-08-14T01:59:20;8.75;;;5.17;;
35576;SDS011;21680;52.400;16.920;2022-08-14T02:01:55;11.18;;;4.83;;
35576;SDS011;21680;52.400;16.920;2022-08-14T02:04:24;5.25;;;3.95;;
35576;SDS011;21680;52.400;16.920;2022-08-14T02:06:56;11.12;;;4.17;;
35576;SDS011;21680;52.400;16.920;2022-08-14T02:09:23;11.35;;;4.53;;
35576;SDS011;21680;52.400;16.920;2022-08-14T02:11:50;6.80;;;4.50;;
35576;SDS011;21680;52.400;16.920;2022-08-14T02:14:17;9.53;;;4.50;;
35576;SDS011;21680;52.400;16.920;2022-08-14T02:16:45;10.00;;;4.33;;
35576;SDS011;21680;52.400;16.920;2022-08-14T02:19:16;12.98;;;4.97;;
35576;SDS011;21680;52.400;16.920;2022-08-14T02:21:45;9.20;;;4.40;;
35576;SDS011;21680;52.400;16.920;2022-08-14T02:24:14;10.93;;;3.95;;
35576;SDS011;21680;52.400;16.920;2022-08-14T02:26:42;9.88;;;3.92;;
35576;SDS011;21680;52.400;16.920;2022-08-14T02:29:16;9.00;;;4.58;;
35576;SDS011;21680;52.400;16.920;2022-08-14T02:31:47;9.20;;;4.55;;
35576;SDS011;21680;52.400;16.920;2022-08-14T02:34:18;10.32;;;4.75;;
35576;SDS011;21680;52.400;16.920;2022-08-14T02:39:17;9.70;;;4.65;;
35576;SDS011;21680;52.400;16.920;2022-08-14T02:41:44;9.70;;;3.58;;
35576;SDS011;21680;52.400;16.920;2022-08-14T02:44:13;8.55;;;4.72;;
35576;SDS011;21680;52.400;16.920;2022-08-14T02:46:39;8.03;;;4.30;;
35576;SDS011;21680;52.400;16.920;2022-08-14T02:49:09;10.00;;;5.03;;
35576;SDS011;21680;52.400;16.920;2022-08-14T02:51:36;16.25;;;4.80;;
35576;SDS011;21680;52.400;16.920;2022-08-14T02:54:04;7.92;;;4.47;;
35576;SDS011;21680;52.400;16.920;2022-08-14T02:56:31;11.20;;;4.58;;
35576;SDS011;21680;52.400;16.920;2022-08-14T02:58:59;6.72;;;4.70;;
35576;SDS011;21680;52.400;16.920;2022-08-14T03:01:26;8.83;;;4.92;;
35576;SDS011;21680;52.400;16.920;2022-08-14T03:03:53;13.43;;;4.53;;
35576;SDS011;21680;52.400;16.920;2022-08-14T03:06:20;8.80;;;4.53;;
35576;SDS011;21680;52.400;16.920;2022-08-14T03:08:50;10.00;;;4.22;;
35576;SDS011;21680;52.400;16.920;2022-08-14T03:11:19;13.13;;;4.87;;
35576;SDS011;21680;52.400;16.920;2022-08-14T03:13:47;10.75;;;4.70;;
35576;SDS011;21680;52.400;16.920;2022-08-14T03:16:19;7.33;;;4.72;;
35576;SDS011;21680;52.400;16.920;2022-08-14T03:18:48;16.48;;;4.83;;
35576;SDS011;21680;52.400;16.920;2022-08-14T03:21:18;10.87;;;4.33;;
35576;SDS011;21680;52.400;16.920;2022-08-14T03:23:48;16.00;;;4.37;;
35576;SDS011;21680;52.400;16.920;2022-08-14T03:26:19;9.05;;;4.80;;
35576;SDS011;21680;52.400;16.920;2022-08-14T03:28:48;7.80;;;4.50;;
35576;SDS011;21680;52.400;16.920;2022-08-14T03:31:16;17.95;;;4.78;;
35576;SDS011;21680;52.400;16.920;2022-08-14T03:33:45;8.03;;;4.80;;
35576;SDS011;21680;52.400;16.920;2022-08-14T03:36:12;12.50;;;4.55;;
35576;SDS011;21680;52.400;16.920;2022-08-14T03:38:41;10.58;;;4.67;;
35576;SDS011;21680;52.400;16.920;2022-08-14T03:41:10;14.68;;;5.00;;
35576;SDS011;21680;52.400;16.920;2022-08-14T03:43:41;14.28;;;4.65;;
35576;SDS011;21680;52.400;16.920;2022-08-14T03:46:09;5.50;;;4.25;;
35576;SDS011;21680;52.400;16.920;2022-08-14T03:48:38;15.75;;;4.95;;
35576;SDS011;21680;52.400;16.920;2022-08-14T03:51:06;9.23;;;4.72;;
35576;SDS011;21680;52.400;16.920;2022-08-14T03:53:38;16.15;;;5.45;;
35576;SDS011;21680;52.400;16.920;2022-08-14T03:56:08;8.18;;;4.22;;
35576;SDS011;21680;52.400;16.920;2022-08-14T03:58:47;9.90;;;4.17;;
35576;SDS011;21680;52.400;16.920;2022-08-14T04:01:16;10.70;;;4.60;;
35576;SDS011;21680;52.400;16.920;2022-08-14T04:03:48;12.20;;;4.67;;
35576;SDS011;21680;52.400;16.920;2022-08-14T04:06:17;13.32;;;5.35;;
35576;SDS011;21680;52.400;16.920;2022-08-14T04:08:47;10.35;;;4.42;;
35576;SDS011;21680;52.400;16.920;2022-08-14T04:11:14;10.65;;;4.85;;
35576;SDS011;21680;52.400;16.920;2022-08-14T04:13:43;8.60;;;5.22;;
35576;SDS011;21680;52.400;16.920;2022-08-14T04:16:12;9.30;;;5.08;;
35576;SDS011;21680;52.400;16.920;2022-08-14T04:18:53;13.58;;;5.67;;
35576;SDS011;21680;52.400;16.920;2022-08-14T04:21:18;5.47;;;4.78;;
35576;SDS011;21680;52.400;16.920;2022-08-14T04:23:47;7.25;;;5.03;;
35576;SDS011;21680;52.400;16.920;2022-08-14T04:26:15;14.18;;;4.40;;
35576;SDS011;21680;52.400;16.920;2022-08-14T04:28:44;8.78;;;5.03;;
35576;SDS011;21680;52.400;16.920;2022-08-14T04:31:11;13.58;;;4.37;;
35576;SDS011;21680;52.400;16.920;2022-08-14T04:33:37;10.43;;;4.62;;
35576;SDS011;21680;52.400;16.920;2022-08-14T04:36:03;10.88;;;5.10;;
35576;SDS011;21680;52.400;16.920;2022-08-14T04:38:30;9.63;;;4.53;;
35576;SDS011;21680;52.400;16.920;2022-08-14T04:41:14;8.33;;;4.67;;
35576;SDS011;21680;52.400;16.920;2022-08-14T04:43:58;10.30;;;4.60;;
35576;SDS011;21680;52.400;16.920;2022-08-14T04:46:24;13.80;;;5.28;;
35576;SDS011;21680;52.400;16.920;2022-08-14T04:48:53;8.83;;;4.87;;
35576;SDS011;21680;52.400;16.920;2022-08-14T04:51:20;10.45;;;5.10;;
35576;SDS011;21680;52.400;16.920;2022-08-14T04:53:52;17.15;;;5.53;;
35576;SDS011;21680;52.400;16.920;2022-08-14T04:56:24;7.42;;;4.87;;
35576;SDS011;21680;52.400;16.920;2022-08-14T04:58:52;8.95;;;4.97;;
35576;SDS011;21680;52.400;16.920;2022-08-14T05:01:22;13.22;;;5.20;;
35576;SDS011;21680;52.400;16.920;2022-08-14T05:03:50;8.28;;;4.80;;
35576;SDS011;21680;52.400;16.920;2022-08-14T05:06:17;8.25;;;4.37;;
35576;SDS011;21680;52.400;16.920;2022-08-14T05:08:43;10.08;;;4.92;;
35576;SDS011;21680;52.400;16.920;2022-08-14T05:11:09;6.17;;;5.10;;
35576;SDS011;21680;52.400;16.920;2022-08-14T05:13:36;10.82;;;4.97;;
35576;SDS011;21680;52.400;16.920;2022-08-14T05:16:04;11.70;;;4.90;;
35576;SDS011;21680;52.400;16.920;2022-08-14T05:18:33;10.10;;;4.85;;
35576;SDS011;21680;52.400;16.920;2022-08-14T05:21:04;8.95;;;4.35;;
35576;SDS011;21680;52.400;16.920;2022-08-14T05:23:32;8.18;;;5.30;;
35576;SDS011;21680;52.400;16.920;2022-08-14T05:26:01;9.78;;;4.47;;
35576;SDS011;21680;52.400;16.920;2022-08-14T05:28:31;12.23;;;5.20;;
35576;SDS011;21680;52.400;16.920;2022-08-14T05:31:00;13.05;;;5.15;;
35576;SDS011;21680;52.400;16.920;2022-08-14T05:33:30;16.52;;;5.20;;
35576;SDS011;21680;52.400;16.920;2022-08-14T05:35:59;14.95;;;5.75;;
35576;SDS011;21680;52.400;16.920;2022-08-14T05:38:33;9.63;;;4.60;;
35576;SDS011;21680;52.400;16.920;2022-08-14T05:41:02;12.05;;;4.72;;
35576;SDS011;21680;52.400;16.920;2022-08-14T05:43:32;9.90;;;4.78;;
35576;SDS011;21680;52.400;16.920;2022-08-14T05:45:59;11.60;;;4.58;;
35576;SDS011;21680;52.400;16.920;2022-08-14T05:48:26;9.38;;;4.90;;
35576;SDS011;21680;52.400;16.920;2022-08-14T05:50:52;11.53;;;6.03;;
35576;SDS011;21680;52.400;16.920;2022-08-14T05:53:24;8.00;;;5.15;;
35576;SDS011;21680;52.400;16.920;2022-08-14T05:55:49;10.72;;;4.97;;
35576;SDS011;21680;52.400;16.920;2022-08-14T05:58:15;10.13;;;5.08;;
35576;SDS011;21680;52.400;16.920;2022-08-14T06:00:42;17.98;;;4.90;;
35576;SDS011;21680;52.400;16.920;2022-08-14T06:03:12;11.20;;;5.20;;
35576;SDS011;21680;52.400;16.920;2022-08-14T06:05:41;8.85;;;4.65;;
35576;SDS011;21680;52.400;16.920;2022-08-14T06:08:13;10.58;;;4.95;;
35576;SDS011;21680;52.400;16.920;2022-08-14T06:10:52;10.75;;;4.58;;
35576;SDS011;21680;52.400;16.920;2022-08-14T06:13:21;5.80;;;4.47;;
35576;SDS011;21680;52.400;16.920;2022-08-14T06:15:48;8.45;;;4.85;;
35576;SDS011;21680;52.400;16.920;2022-08-14T06:18:15;10.82;;;4.25;;
35576;SDS011;21680;52.400;16.920;2022-08-14T06:20:42;8.35;;;4.37;;
35576;SDS011;21680;52.400;16.920;2022-08-14T06:23:09;12.37;;;4.15;;
35576;SDS011;21680;52.400;16.920;2022-08-14T06:25:35;11.70;;;5.17;;
35576;SDS011;21680;52.400;16.920;2022-08-14T06:28:01;6.97;;;4.15;;
35576;SDS011;21680;52.400;16.920;2022-08-14T06:30:29;14.58;;;4.47;;
35576;SDS011;21680;52.400;16.920;2022-08-14T06:32:57;10.23;;;4.03;;
35576;SDS011;21680;52.400;16.920;2022-08-14T06:35:23;10.68;;;4.17;;
35576;SDS011;21680;52.400;16.920;2022-08-14T06:37:50;7.62;;;4.40;;
35576;SDS011;21680;52.400;16.920;2022-08-14T06:40:21;5.35;;;3.87;;
35576;SDS011;21680;52.400;16.920;2022-08-14T06:42:51;11.60;;;4.22;;
35576;SDS011;21680;52.400;16.920;2022-08-14T06:45:18;15.85;;;4.20;;
35576;SDS011;21680;52.400;16.920;2022-08-14T06:47:44;10.85;;;4.25;;
35576;SDS011;21680;52.400;16.920;2022-08-14T06:50:13;7.00;;;4.20;;
35576;SDS011;21680;52.400;16.920;2022-08-14T06:52:42;10.05;;;4.33;;
35576;SDS011;21680;52.400;16.920;2022-08-14T06:55:10;9.95;;;4.40;;
35576;SDS011;21680;52.400;16.920;2022-08-14T06:57:39;9.53;;;4.97;;
35576;SDS011;21680;52.400;16.920;2022-08-14T07:00:21;5.40;;;4.25;;
35576;SDS011;21680;52.400;16.920;2022-08-14T07:02:48;15.93;;;4.55;;
35576;SDS011;21680;52.400;16.920;2022-08-14T07:05:33;7.03;;;4.83;;
35576;SDS011;21680;52.400;16.920;2022-08-14T07:08:16;6.03;;;4.05;;
35576;SDS011;21680;52.400;16.920;2022-08-14T07:10:51;7.08;;;4.30;;
35576;SDS011;21680;52.400;16.920;2022-08-14T07:13:19;8.65;;;4.03;;
35576;SDS011;21680;52.400;16.920;2022-08-14T07:15:46;14.70;;;4.10;;
35576;SDS011;21680;52.400;16.920;2022-08-14T07:18:21;11.80;;;3.83;;
35576;SDS011;21680;52.400;16.920;2022-08-14T07:20:49;6.03;;;3.60;;
35576;SDS011;21680;52.400;16.920;2022-08-14T07:23:15;9.05;;;3.70;;
35576;SDS011;21680;52.400;16.920;2022-08-14T07:25:43;11.22;;;4.47;;
35576;SDS011;21680;52.400;16.920;2022-08-14T07:28:14;12.20;;;3.95;;
35576;SDS011;21680;52.400;16.920;2022-08-14T07:30:48;9.95;;;4.40;;
35576;SDS011;21680;52.400;16.920;2022-08-14T07:33:15;7.50;;;3.77;;
35576;SDS011;21680;52.400;16.920;2022-08-14T07:35:41;10.70;;;4.30;;
35576;SDS011;21680;52.400;16.920;2022-08-14T07:38:15;6.67;;;4.15;;
35576;SDS011;21680;52.400;16.920;2022-08-14T07:40:39;8.63;;;3.67;;
35576;SDS011;21680;52.400;16.920;2022-08-14T07:43:05;9.18;;;4.00;;
35576;SDS011;21680;52.400;16.920;2022-08-14T07:45:31;12.00;;;4.05;;
35576;SDS011;21680;52.400;16.920;2022-08-14T07:47:57;7.80;;;3.98;;
35576;SDS011;21680;52.400;16.920;2022-08-14T07:50:23;7.72;;;4.45;;
35576;SDS011;21680;52.400;16.920;2022-08-14T07:52:50;7.92;;;4.00;;
35576;SDS011;21680;52.400;16.920;2022-08-14T07:55:16;14.38;;;4.28;;
35576;SDS011;21680;52.400;16.920;2022-08-14T07:57:44;9.28;;;4.03;;
35576;SDS011;21680;52.400;16.920;2022-08-14T08:00:13;6.30;;;3.77;;
35576;SDS011;21680;52.400;16.920;2022-08-14T08:02:44;7.42;;;3.70;;
35576;SDS011;21680;52.400;16.920;2022-08-14T08:05:12;9.68;;;3.60;;
35576;SDS011;21680;52.400;16.920;2022-08-14T08:07:40;10.50;;;3.60;;
35576;SDS011;21680;52.400;16.920;2022-08-14T08:10:09;11.78;;;4.20;;
35576;SDS011;21680;52.400;16.920;2022-08-14T08:15:43;10.72;;;3.65;;
35576;SDS011;21680;52.400;16.920;2022-08-14T08:18:13;5.10;;;3.20;;
35576;SDS011;21680;52.400;16.920;2022-08-14T08:20:41;7.92;;;3.40;;
35576;SDS011;21680;52.400;16.920;2022-08-14T08:23:13;6.28;;;3.05;;
35576;SDS011;21680;52.400;16.920;2022-08-14T08:25:44;8.87;;;3.43;;
35576;SDS011;21680;52.400;16.920;2022-08-14T08:28:18;7.53;;;3.30;;
35576;SDS011;21680;52.400;16.920;2022-08-14T08:30:55;7.03;;;3.60;;
35576;SDS011;21680;52.400;16.920;2022-08-14T08:33:25;10.00;;;3.30;;
35576;SDS011;21680;52.400;16.920;2022-08-14T08:35:59;9.18;;;3.45;;
35576;SDS011;21680;52.400;16.920;2022-08-14T08:38:32;8.68;;;3.12;;
35576;SDS011;21680;52.400;16.920;2022-08-14T08:40:58;8.68;;;3.10;;
35576;SDS011;21680;52.400;16.920;2022-08-14T08:43:26;7.75;;;3.25;;
35576;SDS011;21680;52.400;16.920;2022-08-14T08:45:59;10.30;;;3.30;;
35576;SDS011;21680;52.400;16.920;2022-08-14T08:48:46;6.65;;;3.47;;
35576;SDS011;21680;52.400;16.920;2022-08-14T08:51:23;7.45;;;3.27;;
35576;SDS011;21680;52.400;16.920;2022-08-14T08:54:05;8.50;;;3.17;;
35576;SDS011;21680;52.400;16.920;2022-08-14T09:04:28;13.38;;;2.65;;
35576;SDS011;21680;52.400;16.920;2022-08-14T09:09:24;13.35;;;3.17;;
35576;SDS011;21680;52.400;16.920;2022-08-14T09:11:54;5.90;;;3.12;;
35576;SDS011;21680;52.400;16.920;2022-08-14T09:14:22;7.62;;;2.62;;
35576;SDS011;21680;52.400;16.920;2022-08-14T09:16:51;6.17;;;3.00;;
35576;SDS011;21680;52.400;16.920;2022-08-14T09:19:18;10.20;;;2.85;;
35576;SDS011;21680;52.400;16.920;2022-08-14T09:21:45;6.70;;;2.85;;
35576;SDS011;21680;52.400;16.920;2022-08-14T09:24:12;8.38;;;3.17;;
35576;SDS011;21680;52.400;16.920;2022-08-14T09:26:38;5.62;;;2.72;;
35576;SDS011;21680;52.400;16.920;2022-08-14T09:29:08;7.97;;;3.30;;
35576;SDS011;21680;52.400;16.920;2022-08-14T09:31:35;9.60;;;2.87;;
35576;SDS011;21680;52.400;16.920;2022-08-14T09:34:28;11.38;;;2.85;;
35576;SDS011;21680;52.400;16.920;2022-08-14T09:40:04;6.15;;;2.90;;
35576;SDS011;21680;52.400;16.920;2022-08-14T09:43:06;10.38;;;2.83;;
35576;SDS011;21680;52.400;16.920;2022-08-14T09:45:52;4.53;;;3.05;;
35576;SDS011;21680;52.400;16.920;2022-08-14T09:48:21;11.28;;;3.05;;
35576;SDS011;21680;52.400;16.920;2022-08-14T09:50:49;6.83;;;3.10;;
35576;SDS011;21680;52.400;16.920;2022-08-14T09:53:32;4.15;;;3.02;;
35576;SDS011;21680;52.400;16.920;2022-08-14T09:56:06;7.28;;;3.30;;
35576;SDS011;21680;52.400;16.920;2022-08-14T09:58:37;10.00;;;3.55;;
35576;SDS011;21680;52.400;16.920;2022-08-14T10:03:47;7.05;;;3.92;;
35576;SDS011;21680;52.400;16.920;2022-08-14T10:06:18;7.90;;;3.67;;
35576;SDS011;21680;52.400;16.920;2022-08-14T10:08:50;6.62;;;3.77;;
35576;SDS011;21680;52.400;16.920;2022-08-14T10:11:30;9.25;;;4.08;;
35576;SDS011;21680;52.400;16.920;2022-08-14T10:14:19;7.95;;;3.72;;
35576;SDS011;21680;52.400;16.920;2022-08-14T10:16:54;8.38;;;3.33;;
35576;SDS011;21680;52.400;16.920;2022-08-14T10:19:23;10.55;;;3.55;;
35576;SDS011;21680;52.400;16.920;2022-08-14T10:22:01;7.87;;;3.55;;
35576;SDS011;21680;52.400;16.920;2022-08-14T10:24:38;7.53;;;3.42;;
35576;SDS011;21680;52.400;16.920;2022-08-14T10:27:17;9.90;;;3.47;;
35576;SDS011;21680;52.400;16.920;2022-08-14T10:29:49;8.10;;;4.08;;
35576;SDS011;21680;52.400;16.920;2022-08-14T10:32:24;7.42;;;4.30;;
35576;SDS011;21680;52.400;16.920;2022-08-14T10:34:51;7.58;;;3.80;;
35576;SDS011;21680;52.400;16.920;2022-08-14T10:37:37;8.45;;;4.47;;
35576;SDS011;21680;52.400;16.920;2022-08-14T10:40:05;4.95;;;3.90;;
35576;SDS011;21680;52.400;16.920;2022-08-14T10:42:37;7.22;;;3.67;;
35576;SDS011;21680;52.400;16.920;2022-08-14T10:45:15;8.40;;;4.40;;
35576;SDS011;21680;52.400;16.920;2022-08-14T10:47:50;9.85;;;4.80;;
35576;SDS011;21680;52.400;16.920;2022-08-14T10:50:27;15.55;;;5.87;;
35576;SDS011;21680;52.400;16.920;2022-08-14T10:53:00;13.48;;;5.90;;
35576;SDS011;21680;52.400;16.920;2022-08-14T10:55:37;12.60;;;5.78;;
35576;SDS011;21680;52.400;16.920;2022-08-14T10:58:06;9.50;;;6.08;;
35576;SDS011;21680;52.400;16.920;2022-08-14T11:00:36;12.43;;;6.12;;
35576;SDS011;21680;52.400;16.920;2022-08-14T11:03:06;8.83;;;6.10;;
35576;SDS011;21680;52.400;16.920;2022-08-14T11:05:40;13.70;;;6.47;;
35576;SDS011;21680;52.400;16.920;2022-08-14T11:08:11;12.50;;;6.47;;
35576;SDS011;21680;52.400;16.920;2022-08-14T11:10:46;14.03;;;6.35;;
35576;SDS011;21680;52.400;16.920;2022-08-14T11:13:20;11.50;;;6.28;;
35576;SDS011;21680;52.400;16.920;2022-08-14T11:15:48;11.70;;;6.65;;
35576;SDS011;21680;52.400;16.920;2022-08-14T11:18:16;9.90;;;5.95;;
35576;SDS011;21680;52.400;16.920;2022-08-14T11:20:51;13.08;;;6.75;;
35576;SDS011;21680;52.400;16.920;2022-08-14T11:23:20;19.82;;;6.15;;
35576;SDS011;21680;52.400;16.920;2022-08-14T11:25:52;10.20;;;6.90;;
35576;SDS011;21680;52.400;16.920;2022-08-14T11:28:21;9.33;;;6.20;;
35576;SDS011;21680;52.400;16.920;2022-08-14T11:30:51;8.75;;;5.83;;
35576;SDS011;21680;52.400;16.920;2022-08-14T11:33:21;12.15;;;6.30;;
35576;SDS011;21680;52.400;16.920;2022-08-14T11:35:49;7.47;;;6.03;;
35576;SDS011;21680;52.400;16.920;2022-08-14T11:38:15;14.03;;;6.37;;
35576;SDS011;21680;52.400;16.920;2022-08-14T11:40:43;11.28;;;6.70;;
35576;SDS011;21680;52.400;16.920;2022-08-14T11:43:10;9.73;;;6.80;;
35576;SDS011;21680;52.400;16.920;2022-08-14T11:45:37;10.85;;;6.35;;
35576;SDS011;21680;52.400;16.920;2022-08-14T11:48:14;15.38;;;6.33;;
35576;SDS011;21680;52.400;16.920;2022-08-14T11:50:45;8.33;;;6.03;;
35576;SDS011;21680;52.400;16.920;2022-08-14T11:53:20;9.38;;;6.17;;
35576;SDS011;21680;52.400;16.920;2022-08-14T11:58:30;9.65;;;6.62;;
35576;SDS011;21680;52.400;16.920;2022-08-14T12:01:00;13.10;;;7.00;;
35576;SDS011;21680;52.400;16.920;2022-08-14T12:03:34;12.15;;;6.50;;
35576;SDS011;21680;52.400;16.920;2022-08-14T12:06:06;12.25;;;6.60;;
35576;SDS011;21680;52.400;16.920;2022-08-14T12:08:39;16.35;;;6.30;;
35576;SDS011;21680;52.400;16.920;2022-08-14T12:11:06;10.95;;;7.30;;
35576;SDS011;21680;52.400;16.920;2022-08-14T12:13:33;20.20;;;7.05;;
35576;SDS011;21680;52.400;16.920;2022-08-14T12:16:03;10.68;;;7.20;;
35576;SDS011;21680;52.400;16.920;2022-08-14T12:18:33;16.73;;;6.42;;
35576;SDS011;21680;52.400;16.920;2022-08-14T12:21:12;13.32;;;6.25;;
35576;SDS011;21680;52.400;16.920;2022-08-14T12:23:47;12.10;;;6.50;;
35576;SDS011;21680;52.400;16.920;2022-08-14T12:26:20;8.35;;;6.20;;
35576;SDS011;21680;52.400;16.920;2022-08-14T12:28:49;10.93;;;6.33;;
35576;SDS011;21680;52.400;16.920;2022-08-14T12:33:54;9.78;;;6.60;;
35576;SDS011;21680;52.400;16.920;2022-08-14T12:36:25;11.53;;;6.58;;
35576;SDS011;21680;52.400;16.920;2022-08-14T12:38:56;15.40;;;7.50;;
35576;SDS011;21680;52.400;16.920;2022-08-14T12:41:23;11.70;;;7.03;;
35576;SDS011;21680;52.400;16.920;2022-08-14T12:43:58;8.55;;;7.37;;
35576;SDS011;21680;52.400;16.920;2022-08-14T12:46:28;10.72;;;7.30;;
35576;SDS011;21680;52.400;16.920;2022-08-14T12:49:14;10.93;;;6.97;;
35576;SDS011;21680;52.400;16.920;2022-08-14T12:51:43;12.75;;;7.40;;
35576;SDS011;21680;52.400;16.920;2022-08-14T12:54:23;13.85;;;7.10;;
35576;SDS011;21680;52.400;16.920;2022-08-14T12:56:49;13.00;;;7.87;;
35576;SDS011;21680;52.400;16.920;2022-08-14T12:59:15;15.28;;;8.25;;
35576;SDS011;21680;52.400;16.920;2022-08-14T13:01:43;14.18;;;7.83;;
35576;SDS011;21680;52.400;16.920;2022-08-14T13:04:13;13.20;;;8.13;;
35576;SDS011;21680;52.400;16.920;2022-08-14T13:06:42;16.40;;;7.42;;
35576;SDS011;21680;52.400;16.920;2022-08-14T13:09:11;13.98;;;8.50;;
35576;SDS011;21680;52.400;16.920;2022-08-14T13:11:43;11.47;;;8.13;;
35576;SDS011;21680;52.400;16.920;2022-08-14T13:14:17;11.57;;;7.83;;
35576;SDS011;21680;52.400;16.920;2022-08-14T13:16:52;10.80;;;7.22;;
35576;SDS011;21680;52.400;16.920;2022-08-14T13:19:21;13.30;;;7.83;;
35576;SDS011;21680;52.400;16.920;2022-08-14T13:21:50;14.28;;;8.15;;
35576;SDS011;21680;52.400;16.920;2022-08-14T13:24:20;12.80;;;7.58;;
35576;SDS011;21680;52.400;16.920;2022-08-14T13:26:49;9.90;;;7.33;;
35576;SDS011;21680;52.400;16.920;2022-08-14T13:29:22;12.10;;;8.30;;
35576;SDS011;21680;52.400;16.920;2022-08-14T13:31:53;13.25;;;7.40;;
35576;SDS011;21680;52.400;16.920;2022-08-14T13:34:23;9.10;;;7.77;;
35576;SDS011;21680;52.400;16.920;2022-08-14T13:36:52;15.95;;;8.20;;
35576;SDS011;21680;52.400;16.920;2022-08-14T13:39:22;10.30;;;8.18;;
35576;SDS011;21680;52.400;16.920;2022-08-14T13:41:49;24.45;;;8.25;;
35576;SDS011;21680;52.400;16.920;2022-08-14T13:44:15;14.75;;;8.93;;
35576;SDS011;21680;52.400;16.920;2022-08-14T13:46:47;11.65;;;7.08;;
35576;SDS011;21680;52.400;16.920;2022-08-14T13:49:13;13.90;;;7.90;;
35576;SDS011;21680;52.400;16.920;2022-08-14T13:51:41;13.95;;;7.95;;
35576;SDS011;21680;52.400;16.920;2022-08-14T13:54:16;12.82;;;8.28;;
35576;SDS011;21680;52.400;16.920;2022-08-14T13:56:45;11.18;;;7.22;;
35576;SDS011;21680;52.400;16.920;2022-08-14T13:59:12;9.95;;;7.53;;
35576;SDS011;21680;52.400;16.920;2022-08-14T14:01:39;10.90;;;7.25;;
35576;SDS011;21680;52.400;16.920;2022-08-14T14:04:07;10.28;;;7.47;;
35576;SDS011;21680;52.400;16.920;2022-08-14T14:06:42;9.70;;;6.95;;
35576;SDS011;21680;52.400;16.920;2022-08-14T14:09:11;8.25;;;6.78;;
35576;SDS011;21680;52.400;16.920;2022-08-14T14:11:41;7.42;;;6.33;;
35576;SDS011;21680;52.400;16.920;2022-08-14T14:14:08;13.43;;;7.33;;
35576;SDS011;21680;52.400;16.920;2022-08-14T14:16:37;11.43;;;7.40;;
35576;SDS011;21680;52.400;16.920;2022-08-14T14:19:05;9.70;;;6.03;;
35576;SDS011;21680;52.400;16.920;2022-08-14T14:21:32;6.40;;;5.60;;
35576;SDS011;21680;52.400;16.920;2022-08-14T14:23:58;13.38;;;6.12;;
35576;SDS011;21680;52.400;16.920;2022-08-14T14:26:25;13.03;;;6.15;;
35576;SDS011;21680;52.400;16.920;2022-08-14T14:28:55;8.08;;;5.10;;
35576;SDS011;21680;52.400;16.920;2022-08-14T14:31:23;10.70;;;6.08;;
35576;SDS011;21680;52.400;16.920;2022-08-14T14:36:25;8.38;;;5.55;;
35576;SDS011;21680;52.400;16.920;2022-08-14T14:38:59;7.87;;;5.75;;
35576;SDS011;21680;52.400;16.920;2022-08-14T14:41:30;6.55;;;5.42;;
35576;SDS011;21680;52.400;16.920;2022-08-14T14:43:58;6.22;;;5.58;;
35576;SDS011;21680;52.400;16.920;2022-08-14T14:46:25;9.53;;;6.15;;
35576;SDS011;21680;52.400;16.920;2022-08-14T14:49:00;8.78;;;5.45;;
35576;SDS011;21680;52.400;16.920;2022-08-14T14:51:30;8.55;;;5.85;;
35576;SDS011;21680;52.400;16.920;2022-08-14T14:53:56;7.80;;;5.47;;
35576;SDS011;21680;52.400;16.920;2022-08-14T14:56:22;9.95;;;5.15;;
35576;SDS011;21680;52.400;16.920;2022-08-14T14:58:49;10.23;;;5.67;;
35576;SDS011;21680;52.400;16.920;2022-08-14T15:01:16;10.80;;;5.60;;
35576;SDS011;21680;52.400;16.920;2022-08-14T15:03:46;6.12;;;5.50;;
35576;SDS011;21680;52.400;16.920;2022-08-14T15:06:12;8.10;;;5.35;;
35576;SDS011;21680;52.400;16.920;2022-08-14T15:08:38;9.20;;;4.97;;
35576;SDS011;21680;52.400;16.920;2022-08-14T15:11:04;6.65;;;5.40;;
35576;SDS011;21680;52.400;16.920;2022-08-14T15:13:33;8.43;;;5.53;;
35576;SDS011;21680;52.400;16.920;2022-08-14T15:16:01;6.67;;;5.15;;
35576;SDS011;21680;52.400;16.920;2022-08-14T15:18:27;6.10;;;5.30;;